Neffsville, Pennsylvania
Current Conditions -  °F | °C
As of 12:53 PM on Friday 21 Nov 2014 (Local Time) from KLNS Reporting Station
Clear Clear  
Wind Chill: 22°   Ceiling: Unl
Heat Index: 33°   Visibility: 10mi
Dew Point:   Wind: 17mph
Humidity: 35%   Direction: 310°NW
Pressure: 30.38"   Gusts: 23mph
Location:  40.0734°N, 76.3168°W
Report Text: KLNS 211753Z 31015G20KT 10SM CLR 01/M13 A3038 RMK AO2 SLP294 T00061133 10006 21067 51007
Loading
Personal Weather Stations






























Interactive Weather Map New forecast layout! Learn more

10-Day Weather Forecast

Advertisements
Track Severe Weather on mobile